createdAt,value
2023-03-01T00:50:49.831Z,102883.25
2023-03-01T00:53:17.793Z,102883.53
2023-03-01T00:55:47.001Z,102877.94
2023-03-01T00:58:15.011Z,102875.97
2023-03-01T01:47:40.094Z,102842.50
2023-03-01T01:50:10.984Z,102840.59
2023-03-01T01:52:38.918Z,102839.44
2023-03-01T01:55:07.744Z,102839.72
2023-03-01T01:57:36.125Z,102839.72
2023-03-01T02:46:58.810Z,102835.91
2023-03-01T02:49:27.901Z,102836.00
2023-03-01T02:52:04.073Z,102841.50
2023-03-01T02:54:33.523Z,102844.28
2023-03-01T02:57:02.310Z,102850.69
2023-03-01T02:59:33.249Z,102845.13
2023-03-01T03:49:02.772Z,102806.91
2023-03-01T03:51:32.567Z,102804.09
2023-03-01T03:54:02.080Z,102803.28
2023-03-01T03:56:33.907Z,102802.47
2023-03-01T03:59:03.311Z,102802.47
2023-03-01T04:48:28.296Z,102785.16
2023-03-01T04:50:56.684Z,102791.88
2023-03-01T04:53:25.799Z,102776.78
2023-03-01T04:55:54.045Z,102787.94
2023-03-01T04:58:22.116Z,102779.56
2023-03-01T05:50:39.454Z,102768.38
2023-03-01T05:53:09.600Z,102767.28
2023-03-01T05:55:38.876Z,102785.69
2023-03-01T05:58:09.033Z,102773.69
2023-03-01T06:00:38.348Z,102777.59
2023-03-01T06:03:06.586Z,102780.09
2023-03-01T06:05:36.314Z,102764.47
2023-03-01T06:08:06.238Z,102763.34
2023-03-01T06:10:34.457Z,102768.94
2023-03-01T06:13:03.612Z,102763.34
2023-03-01T06:15:31.933Z,102761.69
2023-03-01T06:18:02.847Z,102775.34
2023-03-01T06:20:31.948Z,102765.31
2023-03-01T06:23:06.045Z,102761.69
2023-03-01T06:25:35.641Z,102770.97
2023-03-01T06:28:05.835Z,102773.16
2023-03-01T06:30:33.864Z,102769.22
2023-03-01T06:33:04.465Z,102774.81
2023-03-01T06:35:33.677Z,102781.25
2023-03-01T06:38:04.758Z,102773.69
2023-03-01T06:40:33.427Z,102773.69
2023-03-01T06:43:03.842Z,102762.78
2023-03-01T06:45:45.209Z,102772.00
2023-03-01T06:48:15.070Z,102772.88
2023-03-01T06:50:45.193Z,102772.88
2023-03-01T06:53:16.742Z,102770.06
2023-03-01T06:55:46.382Z,102764.47
2023-03-01T06:58:20.816Z,102773.97
2023-03-01T07:00:50.278Z,102767.28
2023-03-01T07:03:21.232Z,102772.00
2023-03-01T07:05:54.299Z,102776.78
2023-03-01T07:08:23.874Z,102781.25
2023-03-01T07:10:56.831Z,102778.44
2023-03-01T07:13:24.773Z,102778.44
2023-03-01T07:15:52.874Z,102787.34
2023-03-01T07:18:22.104Z,102774.50
2023-03-01T07:20:50.255Z,102781.75
2023-03-01T07:23:18.499Z,102787.34
2023-03-01T07:25:48.357Z,102790.13
2023-03-01T07:28:17.883Z,102787.34
2023-03-01T07:30:46.565Z,102787.34
2023-03-01T07:33:15.163Z,102790.66
2023-03-01T07:35:44.553Z,102790.66
2023-03-01T07:38:13.921Z,102785.06
2023-03-01T07:40:42.111Z,102787.84
2023-03-01T07:43:14.850Z,102789.50
2023-03-01T07:45:43.951Z,102785.88
2023-03-01T07:48:12.034Z,102790.66
2023-03-01T07:50:40.553Z,102796.78
2023-03-01T07:53:08.996Z,102780.63
2023-03-01T07:55:38.012Z,102793.16
2023-03-01T07:58:06.700Z,102787.25
2023-03-01T08:00:36.161Z,102784.47
2023-03-01T08:03:04.121Z,102789.22
2023-03-01T08:05:32.296Z,102791.69
2023-03-01T08:08:00.326Z,102786.13
2023-03-01T08:10:28.281Z,102787.78
2023-03-01T08:12:56.113Z,102787.78
2023-03-01T08:15:25.703Z,102773.78
2023-03-01T08:17:55.482Z,102771.81
2023-03-01T08:20:23.583Z,102767.06
2023-03-01T08:22:52.121Z,102768.75
2023-03-01T08:25:21.559Z,102768.75
2023-03-01T08:27:52.711Z,102765.94
2023-03-01T08:30:21.591Z,102767.06
2023-03-01T08:32:49.597Z,102764.28
2023-03-01T08:35:20.230Z,102760.66
2023-03-01T08:37:50.570Z,102763.44
2023-03-01T08:40:18.770Z,102765.41
2023-03-01T08:42:46.899Z,102759.31
2023-03-01T08:45:15.282Z,102761.47
2023-03-01T08:47:43.213Z,102759.81
2023-03-01T08:50:12.584Z,102759.53
2023-03-01T08:52:42.164Z,102768.75
2023-03-01T08:55:10.454Z,102764.00
2023-03-01T08:57:38.381Z,102762.34
2023-03-01T09:00:11.976Z,102761.47
2023-03-01T09:02:41.183Z,102763.16
2023-03-01T09:05:09.788Z,102763.16
2023-03-01T09:07:38.452Z,102759.22
2023-03-01T09:10:09.298Z,102759.22
2023-03-01T09:12:39.152Z,102755.28
2023-03-01T09:15:08.078Z,102754.13
2023-03-01T09:17:36.516Z,102744.94
2023-03-01T09:20:06.670Z,102742.66
2023-03-01T09:22:35.486Z,102749.09
2023-03-01T09:25:04.230Z,102744.31
2023-03-01T09:27:33.525Z,102737.91
2023-03-01T09:30:01.520Z,102738.75
2023-03-01T09:32:29.670Z,102739.56
2023-03-01T09:35:05.697Z,102745.16
2023-03-01T09:37:34.357Z,102736.22
2023-03-01T09:40:02.825Z,102737.91
2023-03-01T09:42:33.003Z,102737.91
2023-03-01T09:45:04.020Z,102737.91
2023-03-01T09:47:32.791Z,102739.84
2023-03-01T09:50:02.336Z,102727.84
2023-03-01T09:52:32.035Z,102719.47
2023-03-01T09:55:01.047Z,102722.78
2023-03-01T09:57:31.060Z,102727.25
2023-03-01T10:00:05.633Z,102724.44
2023-03-01T10:02:35.816Z,102719.69
2023-03-01T10:05:07.696Z,102724.44
2023-03-01T10:07:38.847Z,102727.75
2023-03-01T10:10:08.375Z,102716.78
2023-03-01T10:12:37.186Z,102729.94
2023-03-01T10:15:08.957Z,102728.78
2023-03-01T10:17:37.642Z,102723.22
2023-03-01T10:20:14.678Z,102731.09
2023-03-01T10:22:42.483Z,102722.16
2023-03-01T10:25:10.831Z,102720.50
2023-03-01T10:27:40.265Z,102720.72
2023-03-01T10:30:12.460Z,102724.03
2023-03-01T10:32:40.452Z,102723.72
2023-03-01T10:35:18.134Z,102722.59
2023-03-01T10:37:58.487Z,102724.25
2023-03-01T10:40:26.417Z,102717.50
2023-03-01T10:42:54.716Z,102714.72
2023-03-01T10:45:33.998Z,102713.06
2023-03-01T10:48:06.030Z,102709.13
2023-03-01T10:50:34.070Z,102708.31
2023-03-01T10:53:02.904Z,102698.56
2023-03-01T10:55:32.621Z,102696.31
2023-03-01T10:58:10.737Z,102693.50
2023-03-01T11:00:49.277Z,102685.94
2023-03-01T11:03:21.792Z,102686.78
2023-03-01T11:05:57.369Z,102691.22
2023-03-01T11:08:34.787Z,102686.78
2023-03-01T11:11:07.183Z,102678.88
2023-03-01T11:13:36.517Z,102680.56
2023-03-01T11:16:08.051Z,102678.88
2023-03-01T11:18:46.993Z,102678.88
2023-03-01T11:21:16.271Z,102672.47
2023-03-01T11:23:44.256Z,102677.25
2023-03-01T11:26:13.144Z,102674.44
2023-03-01T11:28:42.148Z,102663.81
2023-03-01T11:31:23.821Z,102654.38
2023-03-01T11:33:52.518Z,102654.88
2023-03-01T11:36:22.194Z,102664.91
2023-03-01T11:38:50.126Z,102659.84
2023-03-01T11:41:18.527Z,102652.63
2023-03-01T11:43:49.322Z,102659.03
2023-03-01T11:46:38.062Z,102655.41
2023-03-01T11:49:11.112Z,102656.53
2023-03-01T11:51:44.058Z,102655.69
2023-03-01T11:54:15.416Z,102655.41
2023-03-01T11:56:44.204Z,102652.63
2023-03-01T11:59:30.263Z,102647.03
2023-03-01T12:02:03.353Z,102638.63
2023-03-01T12:04:46.728Z,102644.72
2023-03-01T12:07:17.570Z,102646.38
2023-03-01T12:09:51.456Z,102643.59
2023-03-01T12:12:27.096Z,102633.56
2023-03-01T12:15:03.283Z,102630.44
2023-03-01T12:17:50.472Z,102625.16
2023-03-01T12:20:22.183Z,102626.91
2023-03-01T12:23:18.368Z,102626.31
2023-03-01T12:25:51.060Z,102624.03
2023-03-01T12:28:32.529Z,102622.59
2023-03-01T12:31:07.895Z,102621.72
2023-03-01T12:33:38.228Z,102613.88
2023-03-01T12:36:15.360Z,102616.66
2023-03-01T12:38:44.451Z,102606.00
2023-03-01T12:41:24.966Z,102606.00
2023-03-01T12:43:56.520Z,102600.41
2023-03-01T12:46:27.970Z,102604.84
2023-03-01T12:48:58.532Z,102595.63
2023-03-01T12:51:26.736Z,102590.88
2023-03-01T12:53:56.061Z,102596.47
2023-03-01T12:56:25.649Z,102588.59
2023-03-01T12:58:58.726Z,102577.41
2023-03-01T13:01:28.813Z,102577.41
2023-03-01T13:04:12.315Z,102569.53
2023-03-01T13:06:43.809Z,102575.13
2023-03-01T13:09:14.066Z,102573.47
2023-03-01T13:11:44.998Z,102566.22
2023-03-01T13:14:31.503Z,102567.88
2023-03-01T13:16:59.272Z,102558.13
2023-03-01T13:19:27.372Z,102567.56
2023-03-01T13:21:56.239Z,102560.00
2023-03-01T13:24:27.577Z,102552.75
2023-03-01T13:27:25.895Z,102561.13
2023-03-01T13:29:54.117Z,102560.00
2023-03-01T13:32:28.824Z,102545.19
2023-03-01T13:35:02.600Z,102534.31
2023-03-01T13:37:34.435Z,102538.28
2023-03-01T13:40:05.903Z,102537.94
2023-03-01T13:42:39.433Z,102522.94
2023-03-01T13:45:15.228Z,102535.97
2023-03-01T13:47:43.370Z,102526.44
2023-03-01T13:50:17.832Z,102520.84
2023-03-01T13:52:46.237Z,102526.44
2023-03-01T13:55:19.142Z,102528.09
2023-03-01T13:57:48.817Z,102525.28
2023-03-01T14:00:29.576Z,102528.94
2023-03-01T14:03:06.424Z,102528.94
2023-03-01T14:05:34.463Z,102516.91
2023-03-01T14:08:02.457Z,102520.84
2023-03-01T14:10:31.926Z,102509.50
2023-03-01T14:13:14.476Z,102515.25
2023-03-01T14:15:44.733Z,102519.69
2023-03-01T14:18:12.692Z,102508.00
2023-03-01T14:20:41.433Z,102504.72
2023-03-01T14:23:11.998Z,102505.53
2023-03-01T14:25:40.402Z,102493.53
2023-03-01T14:28:15.876Z,102489.09
2023-03-01T14:30:44.014Z,102486.78
2023-03-01T14:33:20.756Z,102486.78
2023-03-01T14:35:55.622Z,102482.34
2023-03-01T14:38:24.268Z,102475.13
2023-03-01T14:40:53.454Z,102471.16
2023-03-01T14:43:23.212Z,102469.53
2023-03-01T14:45:51.498Z,102466.19
2023-03-01T14:48:19.389Z,102471.16
2023-03-01T14:50:48.178Z,102470.34
2023-03-01T14:53:17.905Z,102469.53
2023-03-01T14:55:47.342Z,102469.53
2023-03-01T14:58:15.807Z,102463.72
2023-03-01T15:00:48.141Z,102470.34
2023-03-01T15:03:17.463Z,102463.94
2023-03-01T15:05:45.357Z,102462.25
2023-03-01T15:08:17.068Z,102462.25
2023-03-01T15:10:46.965Z,102462.25
2023-03-01T15:13:15.142Z,102456.66
2023-03-01T15:15:44.178Z,102464.75
2023-03-01T15:18:20.379Z,102456.66
2023-03-01T15:20:48.492Z,102463.94
2023-03-01T15:26:23.379Z,102454.41
2023-03-01T15:28:59.177Z,102454.41
2023-03-01T15:31:27.532Z,102454.41
2023-03-01T15:34:00.856Z,102457.19
2023-03-01T15:36:32.643Z,102461.63
2023-03-01T15:39:01.167Z,102448.81
2023-03-01T15:41:31.853Z,102459.47
2023-03-01T15:44:00.102Z,102452.75
2023-03-01T15:46:31.086Z,102450.78
2023-03-01T15:49:01.462Z,102448.28
2023-03-01T15:51:30.975Z,102439.88
2023-03-01T15:54:00.000Z,102444.66
2023-03-01T15:56:28.069Z,102447.16
2023-03-01T15:58:59.422Z,102445.47
2023-03-01T16:01:27.305Z,102444.38
2023-03-01T16:03:55.778Z,102443.22
2023-03-01T16:06:25.142Z,102435.97
2023-03-01T16:08:54.883Z,102426.72
2023-03-01T16:11:22.735Z,102425.63
2023-03-01T16:13:50.995Z,102424.78
2023-03-01T16:16:19.084Z,102430.38
2023-03-01T16:18:47.197Z,102417.53
2023-03-01T16:21:21.079Z,102423.13
2023-03-01T16:23:50.271Z,102415.06
2023-03-01T16:26:21.072Z,102412.25
2023-03-01T16:28:49.353Z,102419.81
2023-03-01T16:31:19.448Z,102419.81
2023-03-01T16:33:50.652Z,102407.00
2023-03-01T16:36:19.136Z,102423.78
2023-03-01T16:38:46.946Z,102426.91
2023-03-01T16:41:19.448Z,102428.53
2023-03-01T16:43:48.683Z,102433.31
2023-03-01T16:46:17.556Z,102431.34
2023-03-01T16:48:45.708Z,102433.31
2023-03-01T16:51:13.933Z,102427.72
2023-03-01T16:53:41.979Z,102433.31
2023-03-01T16:56:10.993Z,102438.91
2023-03-01T16:58:40.246Z,102438.91
2023-03-01T17:01:08.521Z,102438.91
2023-03-01T17:03:36.928Z,102447.28
2023-03-01T17:06:06.022Z,102445.59
2023-03-01T17:08:33.920Z,102448.41
2023-03-01T17:11:07.912Z,102449.25
2023-03-01T17:13:36.483Z,102448.41
2023-03-01T17:16:06.972Z,102437.88
2023-03-01T17:18:35.196Z,102440.34
2023-03-01T17:21:03.469Z,102445.09
2023-03-01T17:23:31.575Z,102445.09
2023-03-01T17:25:59.902Z,102445.94
2023-03-01T17:28:28.553Z,102448.72
2023-03-01T17:30:56.604Z,102450.69
2023-03-01T17:33:25.982Z,102449.88
2023-03-01T17:35:53.907Z,102450.69
2023-03-01T17:38:22.694Z,102451.84
2023-03-01T17:40:50.976Z,102450.69
2023-03-01T17:43:18.926Z,102461.06
2023-03-01T17:45:48.719Z,102465.81
2023-03-01T17:48:52.780Z,102466.66
2023-03-01T17:55:23.839Z,102464.69
2023-03-01T17:57:51.966Z,102465.81
2023-03-01T18:00:22.065Z,102463.03
2023-03-01T18:02:49.974Z,102471.41
2023-03-01T18:05:18.725Z,102468.63
2023-03-01T18:07:46.809Z,102465.00
2023-03-01T18:10:14.618Z,102469.78
2023-03-01T18:12:44.081Z,102465.00
2023-03-01T18:15:20.251Z,102474.22
2023-03-01T18:17:50.303Z,102477.00
2023-03-01T18:20:19.629Z,102471.41
2023-03-01T18:22:51.206Z,102472.25
2023-03-01T18:25:19.467Z,102476.19
2023-03-01T18:27:48.783Z,102475.38
2023-03-01T18:30:16.949Z,102462.53
2023-03-01T18:32:45.134Z,102463.34
2023-03-01T18:35:13.432Z,102464.19
2023-03-01T18:37:41.303Z,102458.59
2023-03-01T18:40:10.170Z,102471.75
2023-03-01T18:42:38.576Z,102456.94
2023-03-01T18:45:08.942Z,102475.38
2023-03-01T18:47:37.048Z,102475.38
2023-03-01T18:50:05.197Z,102469.78
2023-03-01T18:52:33.087Z,102465.00
2023-03-01T18:55:01.317Z,102461.06
2023-03-01T18:57:29.672Z,102458.59
2023-03-01T18:59:57.455Z,102453.81
2023-03-01T19:02:26.967Z,102461.38
2023-03-01T19:04:54.935Z,102464.19
2023-03-01T19:07:23.224Z,102463.03
2023-03-01T19:09:51.569Z,102464.19
2023-03-01T19:12:19.645Z,102461.38
2023-03-01T19:14:47.703Z,102463.34
2023-03-01T19:17:15.866Z,102458.59
2023-03-01T19:19:46.928Z,102456.94
2023-03-01T19:22:15.566Z,102456.94
2023-03-01T19:24:43.889Z,102458.59
2023-03-01T19:27:12.189Z,102466.44
2023-03-01T19:29:40.529Z,102465.31
2023-03-01T19:32:09.653Z,102463.34
2023-03-01T19:34:40.758Z,102474.53
2023-03-01T19:37:11.112Z,102470.91
2023-03-01T19:39:39.755Z,102476.50
2023-03-01T19:42:07.979Z,102480.94
2023-03-01T19:44:38.472Z,102481.78
2023-03-01T19:47:06.733Z,102479.31
2023-03-01T19:49:38.420Z,102476.50
2023-03-01T19:52:06.573Z,102486.53
2023-03-01T19:54:36.591Z,102482.59
2023-03-01T19:57:04.606Z,102480.94
2023-03-01T19:59:32.869Z,102487.69
2023-03-01T20:02:01.735Z,102497.72
2023-03-01T20:04:30.656Z,102489.34
2023-03-01T20:06:58.970Z,102485.72
2023-03-01T20:09:27.338Z,102481.78
2023-03-01T20:11:57.038Z,102487.69
2023-03-01T20:14:25.391Z,102484.03
2023-03-01T20:16:53.420Z,102482.09
2023-03-01T20:19:21.875Z,102479.31
2023-03-01T20:21:49.921Z,102481.25
2023-03-01T20:24:18.063Z,102472.03
2023-03-01T20:26:46.063Z,102472.84
2023-03-01T20:29:15.296Z,102473.72
2023-03-01T20:31:43.154Z,102479.81
2023-03-01T20:34:11.416Z,102480.13
2023-03-01T20:36:41.083Z,102480.94
2023-03-01T20:39:09.674Z,102473.72
2023-03-01T20:41:37.624Z,102479.31
2023-03-01T20:44:06.728Z,102479.31
2023-03-01T20:46:36.554Z,102466.44
2023-03-01T20:49:04.687Z,102466.44
2023-03-01T20:51:32.573Z,102460.84
2023-03-01T20:54:00.635Z,102455.78
2023-03-01T20:56:28.451Z,102455.25
2023-03-01T20:59:05.598Z,102462.53
2023-03-01T21:01:33.477Z,102455.25
2023-03-01T21:04:03.169Z,102460.84
2023-03-01T21:06:31.969Z,102472.03
2023-03-01T21:09:00.188Z,102460.84
2023-03-01T21:11:28.100Z,102455.25
2023-03-01T21:13:56.031Z,102467.25
2023-03-01T21:16:23.917Z,102472.84
2023-03-01T21:18:51.720Z,102456.41
2023-03-01T21:21:21.563Z,102464.81
2023-03-01T21:23:49.361Z,102464.81
2023-03-01T21:29:16.646Z,102463.16
2023-03-01T21:31:46.449Z,102459.22
2023-03-01T21:34:14.960Z,102464.81
2023-03-01T21:36:44.429Z,102451.97
2023-03-01T21:39:12.999Z,102462.00
2023-03-01T21:41:41.067Z,102462.00
2023-03-01T21:44:09.461Z,102463.97
2023-03-01T21:46:37.916Z,102459.22
2023-03-01T21:49:07.312Z,102456.41
2023-03-01T21:51:36.529Z,102447.19
2023-03-01T21:54:06.166Z,102451.97
2023-03-01T21:56:35.401Z,102449.19
2023-03-01T21:59:03.628Z,102451.97
2023-03-01T22:01:31.646Z,102452.78
2023-03-01T22:03:59.985Z,102451.97
2023-03-01T22:06:28.977Z,102459.22
2023-03-01T22:08:57.328Z,102463.16
2023-03-01T22:11:28.263Z,102463.16
2023-03-01T22:13:56.653Z,102468.75
2023-03-01T22:16:25.251Z,102463.16
2023-03-01T22:18:53.151Z,102454.88
2023-03-01T22:21:21.430Z,102461.50
2023-03-01T22:23:49.549Z,102458.72
2023-03-01T22:26:22.169Z,102450.13
2023-03-01T22:28:51.389Z,102455.91
2023-03-01T22:31:19.643Z,102451.16
2023-03-01T22:33:47.922Z,102450.31
2023-03-01T22:36:15.706Z,102441.94
2023-03-01T22:38:43.659Z,102436.34
2023-03-01T22:41:12.201Z,102442.75
2023-03-01T22:43:40.327Z,102432.72
2023-03-01T22:46:13.382Z,102434.69
2023-03-01T22:48:41.340Z,102431.91
2023-03-01T22:51:10.180Z,102432.72
2023-03-01T22:53:38.124Z,102431.91
2023-03-01T22:56:13.385Z,102424.63
2023-03-01T22:58:41.461Z,102433.03
2023-03-01T23:01:14.846Z,102429.41
2023-03-01T23:03:42.720Z,102429.13
2023-03-01T23:06:10.827Z,102424.63
2023-03-01T23:08:38.672Z,102418.06
2023-03-01T23:11:10.179Z,102431.91
2023-03-01T23:13:38.221Z,102419.06
2023-03-01T23:16:06.586Z,102424.63
2023-03-01T23:18:36.093Z,102419.06
2023-03-01T23:21:08.543Z,102417.41
2023-03-01T23:23:36.445Z,102411.81
2023-03-01T23:26:04.502Z,102404.56
2023-03-01T23:28:32.421Z,102405.41
2023-03-01T23:31:01.473Z,102403.44
2023-03-01T23:33:29.682Z,102403.44
2023-03-01T23:36:00.895Z,102402.59
2023-03-01T23:38:29.490Z,102400.63
2023-03-01T23:40:57.433Z,102400.63
2023-03-01T23:43:25.352Z,102397.34
2023-03-01T23:45:53.983Z,102395.38
2023-03-01T23:48:21.929Z,102404.56
2023-03-01T23:50:49.893Z,102399.81
2023-03-01T23:53:19.510Z,102389.28
2023-03-01T23:55:47.830Z,102392.91
2023-03-01T23:58:15.756Z,102396.53
